sensor_id;sensor_type;location;lat;lon;timestamp;temperature;humidity
40732;DHT22;26420;52.256;9.096;2022-07-03T00:04:57;20.20;99.90
40732;DHT22;26420;52.256;9.096;2022-07-03T00:09:59;20.30;99.90
40732;DHT22;26420;52.256;9.096;2022-07-03T00:15:00;20.40;99.90
40732;DHT22;26420;52.256;9.096;2022-07-03T00:20:03;20.50;99.90
40732;DHT22;26420;52.256;9.096;2022-07-03T00:25:06;20.50;99.90
40732;DHT22;26420;52.256;9.096;2022-07-03T00:30:08;20.60;99.90
40732;DHT22;26420;52.256;9.096;2022-07-03T00:35:16;20.60;99.90
40732;DHT22;26420;52.256;9.096;2022-07-03T00:40:18;20.60;99.90
40732;DHT22;26420;52.256;9.096;2022-07-03T00:45:21;20.60;99.90
40732;DHT22;26420;52.256;9.096;2022-07-03T00:50:26;20.60;99.90
40732;DHT22;26420;52.256;9.096;2022-07-03T00:55:35;20.60;99.90
40732;DHT22;26420;52.256;9.096;2022-07-03T01:00:39;20.60;99.90
40732;DHT22;26420;52.256;9.096;2022-07-03T01:05:49;20.60;99.90
40732;DHT22;26420;52.256;9.096;2022-07-03T01:16:25;20.60;99.90
40732;DHT22;26420;52.256;9.096;2022-07-03T01:22:02;20.60;99.90
40732;DHT22;26420;52.256;9.096;2022-07-03T01:27:16;20.60;99.90
40732;DHT22;26420;52.256;9.096;2022-07-03T01:32:23;20.60;99.90
40732;DHT22;26420;52.256;9.096;2022-07-03T01:37:30;20.50;99.90
40732;DHT22;26420;52.256;9.096;2022-07-03T01:42:33;20.50;99.90
40732;DHT22;26420;52.256;9.096;2022-07-03T01:47:40;20.60;99.90
40732;DHT22;26420;52.256;9.096;2022-07-03T01:52:45;20.60;99.90
40732;DHT22;26420;52.256;9.096;2022-07-03T01:57:49;20.50;99.90
40732;DHT22;26420;52.256;9.096;2022-07-03T02:03:05;20.50;99.90
40732;DHT22;26420;52.256;9.096;2022-07-03T02:13:28;20.40;99.90
40732;DHT22;26420;52.256;9.096;2022-07-03T02:18:37;20.40;99.90
40732;DHT22;26420;52.256;9.096;2022-07-03T02:29:15;20.30;99.90
40732;DHT22;26420;52.256;9.096;2022-07-03T02:34:22;20.40;99.90
40732;DHT22;26420;52.256;9.096;2022-07-03T02:39:35;20.30;99.90
40732;DHT22;26420;52.256;9.096;2022-07-03T02:44:42;20.30;99.90
40732;DHT22;26420;52.256;9.096;2022-07-03T02:50:05;20.30;99.90
40732;DHT22;26420;52.256;9.096;2022-07-03T03:00:33;20.20;99.90
40732;DHT22;26420;52.256;9.096;2022-07-03T03:05:47;20.20;99.90
40732;DHT22;26420;52.256;9.096;2022-07-03T03:10:50;20.20;99.90
40732;DHT22;26420;52.256;9.096;2022-07-03T03:21:09;20.20;99.90
40732;DHT22;26420;52.256;9.096;2022-07-03T03:26:11;20.20;99.90
40732;DHT22;26420;52.256;9.096;2022-07-03T03:31:13;20.20;99.90
40732;DHT22;26420;52.256;9.096;2022-07-03T03:36:17;20.20;99.90
40732;DHT22;26420;52.256;9.096;2022-07-03T03:41:19;20.20;99.90
40732;DHT22;26420;52.256;9.096;2022-07-03T03:46:21;20.30;99.90
40732;DHT22;26420;52.256;9.096;2022-07-03T03:51:23;20.20;99.90
40732;DHT22;26420;52.256;9.096;2022-07-03T03:56:25;20.20;99.90
40732;DHT22;26420;52.256;9.096;2022-07-03T04:01:26;20.30;99.90
40732;DHT22;26420;52.256;9.096;2022-07-03T04:06:28;20.30;99.90
40732;DHT22;26420;52.256;9.096;2022-07-03T04:11:30;20.30;99.90
40732;DHT22;26420;52.256;9.096;2022-07-03T04:16:33;20.40;99.90
40732;DHT22;26420;52.256;9.096;2022-07-03T04:21:35;20.30;99.90
40732;DHT22;26420;52.256;9.096;2022-07-03T04:26:37;20.40;99.90
40732;DHT22;26420;52.256;9.096;2022-07-03T04:31:39;20.40;99.90
40732;DHT22;26420;52.256;9.096;2022-07-03T04:36:41;20.40;99.90
40732;DHT22;26420;52.256;9.096;2022-07-03T04:41:42;20.40;99.90
40732;DHT22;26420;52.256;9.096;2022-07-03T04:46:44;20.30;99.90
40732;DHT22;26420;52.256;9.096;2022-07-03T04:51:46;20.10;99.90
40732;DHT22;26420;52.256;9.096;2022-07-03T04:56:47;19.90;99.90
40732;DHT22;26420;52.256;9.096;2022-07-03T05:01:49;19.90;99.90
40732;DHT22;26420;52.256;9.096;2022-07-03T05:06:51;19.80;99.90
40732;DHT22;26420;52.256;9.096;2022-07-03T05:11:53;19.80;99.90
40732;DHT22;26420;52.256;9.096;2022-07-03T05:16:55;19.90;99.90
40732;DHT22;26420;52.256;9.096;2022-07-03T05:21:56;19.90;99.90
40732;DHT22;26420;52.256;9.096;2022-07-03T05:26:58;19.80;99.90
40732;DHT22;26420;52.256;9.096;2022-07-03T05:32:00;20.00;99.90
40732;DHT22;26420;52.256;9.096;2022-07-03T05:37:02;20.10;99.90
40732;DHT22;26420;52.256;9.096;2022-07-03T05:42:04;20.20;99.90
40732;DHT22;26420;52.256;9.096;2022-07-03T05:47:06;20.30;99.90
40732;DHT22;26420;52.256;9.096;2022-07-03T05:52:08;20.40;99.90
40732;DHT22;26420;52.256;9.096;2022-07-03T05:57:10;20.50;99.90
40732;DHT22;26420;52.256;9.096;2022-07-03T06:02:11;20.60;99.90
40732;DHT22;26420;52.256;9.096;2022-07-03T06:07:13;20.70;99.90
40732;DHT22;26420;52.256;9.096;2022-07-03T06:12:15;20.80;99.90
40732;DHT22;26420;52.256;9.096;2022-07-03T06:17:17;20.80;99.90
40732;DHT22;26420;52.256;9.096;2022-07-03T06:22:19;21.00;99.90
40732;DHT22;26420;52.256;9.096;2022-07-03T06:27:20;21.10;99.90
40732;DHT22;26420;52.256;9.096;2022-07-03T06:32:23;21.10;99.90
40732;DHT22;26420;52.256;9.096;2022-07-03T06:37:25;21.20;99.90
40732;DHT22;26420;52.256;9.096;2022-07-03T06:42:27;21.30;99.90
40732;DHT22;26420;52.256;9.096;2022-07-03T06:47:29;21.30;99.90
40732;DHT22;26420;52.256;9.096;2022-07-03T06:52:31;21.40;99.90
40732;DHT22;26420;52.256;9.096;2022-07-03T06:57:33;21.30;99.90
40732;DHT22;26420;52.256;9.096;2022-07-03T07:02:34;21.40;99.90
40732;DHT22;26420;52.256;9.096;2022-07-03T07:07:36;21.60;99.90
40732;DHT22;26420;52.256;9.096;2022-07-03T07:12:38;21.60;99.90
40732;DHT22;26420;52.256;9.096;2022-07-03T07:17:40;21.60;99.90
40732;DHT22;26420;52.256;9.096;2022-07-03T07:22:42;21.70;99.90
40732;DHT22;26420;52.256;9.096;2022-07-03T07:27:44;21.90;99.90
40732;DHT22;26420;52.256;9.096;2022-07-03T07:32:46;21.90;99.90
40732;DHT22;26420;52.256;9.096;2022-07-03T07:37:54;22.00;99.90
40732;DHT22;26420;52.256;9.096;2022-07-03T07:42:56;22.10;99.90
40732;DHT22;26420;52.256;9.096;2022-07-03T07:47:58;22.10;99.90
40732;DHT22;26420;52.256;9.096;2022-07-03T07:52:59;22.20;99.90
40732;DHT22;26420;52.256;9.096;2022-07-03T07:58:01;22.20;99.90
40732;DHT22;26420;52.256;9.096;2022-07-03T08:03:03;22.20;99.90
40732;DHT22;26420;52.256;9.096;2022-07-03T08:08:24;22.30;99.90
40732;DHT22;26420;52.256;9.096;2022-07-03T08:13:26;22.50;99.90
40732;DHT22;26420;52.256;9.096;2022-07-03T08:18:28;22.60;99.90
40732;DHT22;26420;52.256;9.096;2022-07-03T08:23:30;22.60;99.90
40732;DHT22;26420;52.256;9.096;2022-07-03T08:28:31;22.70;99.90
40732;DHT22;26420;52.256;9.096;2022-07-03T08:33:33;22.70;99.90
40732;DHT22;26420;52.256;9.096;2022-07-03T08:38:39;22.80;99.90
40732;DHT22;26420;52.256;9.096;2022-07-03T08:43:42;23.00;99.90
40732;DHT22;26420;52.256;9.096;2022-07-03T08:48:44;23.30;99.90
40732;DHT22;26420;52.256;9.096;2022-07-03T08:53:47;23.20;99.90
40732;DHT22;26420;52.256;9.096;2022-07-03T08:58:49;23.40;99.90
40732;DHT22;26420;52.256;9.096;2022-07-03T09:03:52;23.50;99.90
40732;DHT22;26420;52.256;9.096;2022-07-03T09:08:55;23.50;99.90
40732;DHT22;26420;52.256;9.096;2022-07-03T09:13:57;23.60;99.90
40732;DHT22;26420;52.256;9.096;2022-07-03T09:18:59;23.80;99.90
40732;DHT22;26420;52.256;9.096;2022-07-03T09:24:07;23.70;99.90
40732;DHT22;26420;52.256;9.096;2022-07-03T09:29:12;23.80;99.90
40732;DHT22;26420;52.256;9.096;2022-07-03T09:34:14;24.00;99.90
40732;DHT22;26420;52.256;9.096;2022-07-03T09:44:34;24.10;99.90
40732;DHT22;26420;52.256;9.096;2022-07-03T09:50:02;24.10;97.20
40732;DHT22;26420;52.256;9.096;2022-07-03T10:00:22;24.30;99.50
40732;DHT22;26420;52.256;9.096;2022-07-03T10:05:41;24.50;98.60
40732;DHT22;26420;52.256;9.096;2022-07-03T10:10:45;24.60;99.70
40732;DHT22;26420;52.256;9.096;2022-07-03T10:15:47;24.80;99.90
40732;DHT22;26420;52.256;9.096;2022-07-03T10:20:50;24.70;98.00
40732;DHT22;26420;52.256;9.096;2022-07-03T10:25:51;24.70;97.40
40732;DHT22;26420;52.256;9.096;2022-07-03T10:30:53;24.70;97.20
40732;DHT22;26420;52.256;9.096;2022-07-03T10:35:56;25.00;96.30
40732;DHT22;26420;52.256;9.096;2022-07-03T10:41:23;25.00;96.00
40732;DHT22;26420;52.256;9.096;2022-07-03T10:46:45;25.10;95.90
40732;DHT22;26420;52.256;9.096;2022-07-03T10:51:58;25.20;96.30
40732;DHT22;26420;52.256;9.096;2022-07-03T11:02:22;25.70;97.60
40732;DHT22;26420;52.256;9.096;2022-07-03T11:13:01;25.90;95.20
40732;DHT22;26420;52.256;9.096;2022-07-03T11:23:16;26.30;97.20
40732;DHT22;26420;52.256;9.096;2022-07-03T11:38:45;26.30;94.20
40732;DHT22;26420;52.256;9.096;2022-07-03T11:43:48;26.40;95.50
40732;DHT22;26420;52.256;9.096;2022-07-03T11:49:07;26.80;94.80
40732;DHT22;26420;52.256;9.096;2022-07-03T11:54:09;27.20;94.40
40732;DHT22;26420;52.256;9.096;2022-07-03T11:59:12;27.30;96.00
40732;DHT22;26420;52.256;9.096;2022-07-03T12:04:19;27.40;96.20
40732;DHT22;26420;52.256;9.096;2022-07-03T12:09:26;27.40;96.50
40732;DHT22;26420;52.256;9.096;2022-07-03T12:14:45;27.20;95.90
40732;DHT22;26420;52.256;9.096;2022-07-03T12:25:00;27.40;95.40
40732;DHT22;26420;52.256;9.096;2022-07-03T12:30:04;27.20;96.70
40732;DHT22;26420;52.256;9.096;2022-07-03T12:35:06;27.60;97.80
40732;DHT22;26420;52.256;9.096;2022-07-03T12:40:10;27.40;96.10
40732;DHT22;26420;52.256;9.096;2022-07-03T12:45:14;26.90;96.10
40732;DHT22;26420;52.256;9.096;2022-07-03T12:50:18;26.90;96.70
40732;DHT22;26420;52.256;9.096;2022-07-03T12:55:28;27.60;97.00
40732;DHT22;26420;52.256;9.096;2022-07-03T13:00:30;27.90;95.00
40732;DHT22;26420;52.256;9.096;2022-07-03T13:05:43;27.90;95.50
40732;DHT22;26420;52.256;9.096;2022-07-03T13:10:57;28.10;94.20
40732;DHT22;26420;52.256;9.096;2022-07-03T13:15:59;28.50;93.00
40732;DHT22;26420;52.256;9.096;2022-07-03T13:21:00;28.50;91.30
40732;DHT22;26420;52.256;9.096;2022-07-03T13:26:02;28.30;90.60
40732;DHT22;26420;52.256;9.096;2022-07-03T13:31:04;28.10;90.70
40732;DHT22;26420;52.256;9.096;2022-07-03T13:36:06;28.30;92.00
40732;DHT22;26420;52.256;9.096;2022-07-03T13:41:07;28.60;90.90
40732;DHT22;26420;52.256;9.096;2022-07-03T13:46:09;28.50;90.70
40732;DHT22;26420;52.256;9.096;2022-07-03T13:51:11;28.50;89.60
40732;DHT22;26420;52.256;9.096;2022-07-03T13:56:18;28.10;89.60
40732;DHT22;26420;52.256;9.096;2022-07-03T14:01:20;28.30;90.70
40732;DHT22;26420;52.256;9.096;2022-07-03T14:06:22;28.60;90.00
40732;DHT22;26420;52.256;9.096;2022-07-03T14:11:24;28.90;90.70
40732;DHT22;26420;52.256;9.096;2022-07-03T14:16:26;28.30;89.00
40732;DHT22;26420;52.256;9.096;2022-07-03T14:21:28;28.00;91.40
40732;DHT22;26420;52.256;9.096;2022-07-03T14:26:30;27.90;91.80
40732;DHT22;26420;52.256;9.096;2022-07-03T14:31:52;27.60;90.90
40732;DHT22;26420;52.256;9.096;2022-07-03T14:37:13;27.40;90.80
40732;DHT22;26420;52.256;9.096;2022-07-03T14:42:18;27.50;92.10
40732;DHT22;26420;52.256;9.096;2022-07-03T14:47:20;27.80;90.20
40732;DHT22;26420;52.256;9.096;2022-07-03T14:52:22;27.80;89.00
40732;DHT22;26420;52.256;9.096;2022-07-03T14:57:30;27.60;90.40
40732;DHT22;26420;52.256;9.096;2022-07-03T15:02:48;27.40;90.80
40732;DHT22;26420;52.256;9.096;2022-07-03T15:08:13;26.90;91.90
40732;DHT22;26420;52.256;9.096;2022-07-03T15:13:17;26.50;92.70
40732;DHT22;26420;52.256;9.096;2022-07-03T15:18:19;26.30;93.60
40732;DHT22;26420;52.256;9.096;2022-07-03T15:23:25;26.40;94.10
40732;DHT22;26420;52.256;9.096;2022-07-03T15:28:29;26.80;92.50
40732;DHT22;26420;52.256;9.096;2022-07-03T15:33:31;26.70;92.30
40732;DHT22;26420;52.256;9.096;2022-07-03T15:38:45;26.90;92.50
40732;DHT22;26420;52.256;9.096;2022-07-03T15:49:34;27.40;92.70
40732;DHT22;26420;52.256;9.096;2022-07-03T16:00:00;27.70;93.20
40732;DHT22;26420;52.256;9.096;2022-07-03T16:05:18;27.70;92.90
40732;DHT22;26420;52.256;9.096;2022-07-03T16:10:21;28.10;93.10
40732;DHT22;26420;52.256;9.096;2022-07-03T16:15:26;28.60;92.20
40732;DHT22;26420;52.256;9.096;2022-07-03T16:20:30;28.90;92.20
40732;DHT22;26420;52.256;9.096;2022-07-03T16:25:35;29.20;92.30
40732;DHT22;26420;52.256;9.096;2022-07-03T16:30:46;29.50;92.50
40732;DHT22;26420;52.256;9.096;2022-07-03T16:35:57;29.00;93.00
40732;DHT22;26420;52.256;9.096;2022-07-03T16:41:01;28.60;93.10
40732;DHT22;26420;52.256;9.096;2022-07-03T16:46:04;28.20;94.10
40732;DHT22;26420;52.256;9.096;2022-07-03T16:51:11;28.00;95.00
40732;DHT22;26420;52.256;9.096;2022-07-03T16:56:16;27.70;94.70
40732;DHT22;26420;52.256;9.096;2022-07-03T17:01:18;27.20;95.00
40732;DHT22;26420;52.256;9.096;2022-07-03T17:06:21;26.90;95.00
40732;DHT22;26420;52.256;9.096;2022-07-03T17:11:24;26.60;94.00
40732;DHT22;26420;52.256;9.096;2022-07-03T17:16:27;26.40;93.90
40732;DHT22;26420;52.256;9.096;2022-07-03T17:21:30;26.20;94.70
40732;DHT22;26420;52.256;9.096;2022-07-03T17:26:41;26.10;94.80
40732;DHT22;26420;52.256;9.096;2022-07-03T17:31:45;25.90;94.60
40732;DHT22;26420;52.256;9.096;2022-07-03T17:36:49;25.80;94.10
40732;DHT22;26420;52.256;9.096;2022-07-03T17:41:51;25.70;93.80
40732;DHT22;26420;52.256;9.096;2022-07-03T17:46:53;25.60;93.90
40732;DHT22;26420;52.256;9.096;2022-07-03T17:51:58;25.60;94.10
40732;DHT22;26420;52.256;9.096;2022-07-03T17:57:01;25.50;93.70
40732;DHT22;26420;52.256;9.096;2022-07-03T18:02:23;25.50;94.70
40732;DHT22;26420;52.256;9.096;2022-07-03T18:07:40;25.40;95.00
40732;DHT22;26420;52.256;9.096;2022-07-03T18:12:51;25.20;94.90
40732;DHT22;26420;52.256;9.096;2022-07-03T18:17:56;24.90;94.60
40732;DHT22;26420;52.256;9.096;2022-07-03T18:23:01;24.60;94.30
40732;DHT22;26420;52.256;9.096;2022-07-03T18:28:03;24.50;94.20
40732;DHT22;26420;52.256;9.096;2022-07-03T18:33:09;24.40;94.90
40732;DHT22;26420;52.256;9.096;2022-07-03T18:38:12;24.20;95.20
